createdAt,value
2017-01-11T00:00:07.212Z,922.16
2017-01-11T00:00:35.530Z,922.19
2017-01-11T00:01:03.611Z,922.2
2017-01-11T00:01:31.757Z,922.21
2017-01-11T00:02:00.102Z,922.22
2017-01-11T00:02:28.273Z,922.22
2017-01-11T00:02:56.718Z,922.24
2017-01-11T00:03:25.045Z,922.2
2017-01-11T00:03:53.319Z,922.23
2017-01-11T00:04:21.570Z,922.21
2017-01-11T00:05:32.938Z,922.24
2017-01-11T00:06:01.172Z,922.22
2017-01-11T00:06:29.414Z,922.24
2017-01-11T00:06:57.489Z,922.26
2017-01-11T00:07:25.703Z,922.28
2017-01-11T00:07:53.762Z,922.28
2017-01-11T00:08:21.938Z,922.26
2017-01-11T00:08:50.185Z,922.3
2017-01-11T00:09:18.418Z,922.28
2017-01-11T00:09:46.689Z,922.29
2017-01-11T00:10:15.030Z,922.31
2017-01-11T00:11:26.123Z,922.32
2017-01-11T00:11:54.357Z,922.31
2017-01-11T00:12:22.587Z,922.33
2017-01-11T00:12:51.012Z,922.29
2017-01-11T00:13:19.321Z,922.35
2017-01-11T00:13:47.561Z,922.35
2017-01-11T00:14:15.547Z,922.31
2017-01-11T00:14:43.885Z,922.35
2017-01-11T00:15:12.208Z,922.37
2017-01-11T00:15:40.474Z,922.32
2017-01-11T00:16:08.630Z,922.3
2017-01-11T00:17:19.909Z,922.33
2017-01-11T00:17:48.140Z,922.3
2017-01-11T00:18:16.372Z,922.33
2017-01-11T00:18:44.638Z,922.34
2017-01-11T00:19:12.672Z,922.33
2017-01-11T00:19:40.820Z,922.35
2017-01-11T00:20:08.719Z,922.35
2017-01-11T00:20:36.871Z,922.35
2017-01-11T00:21:05.004Z,922.33
2017-01-11T00:21:33.252Z,922.36
2017-01-11T00:22:01.600Z,922.33
2017-01-11T00:23:12.971Z,922.38
2017-01-11T00:23:41.210Z,922.37
2017-01-11T00:24:09.532Z,922.36
2017-01-11T00:24:37.699Z,922.37
2017-01-11T00:25:05.916Z,922.38
2017-01-11T00:25:34.706Z,922.38
2017-01-11T00:26:02.883Z,922.38
2017-01-11T00:26:31.224Z,922.36
2017-01-11T00:26:59.452Z,922.38
2017-01-11T00:27:27.636Z,922.4
2017-01-11T00:27:55.885Z,922.38
2017-01-11T00:29:07.259Z,922.38
2017-01-11T00:29:35.587Z,922.41
2017-01-11T00:30:03.913Z,922.45
2017-01-11T00:30:32.080Z,922.4
2017-01-11T00:31:00.207Z,922.41
2017-01-11T00:31:28.448Z,922.42
2017-01-11T00:31:56.625Z,922.45
2017-01-11T00:32:24.775Z,922.46
2017-01-11T00:32:52.823Z,922.44
2017-01-11T00:33:21.095Z,922.48
2017-01-11T00:33:49.439Z,922.46
2017-01-11T00:35:00.810Z,922.48
2017-01-11T00:35:28.949Z,922.5
2017-01-11T00:35:57.271Z,922.5
2017-01-11T00:36:25.436Z,922.48
2017-01-11T00:36:53.652Z,922.5
2017-01-11T00:37:21.894Z,922.47
2017-01-11T00:37:49.976Z,922.48
2017-01-11T00:38:18.127Z,922.53
2017-01-11T00:38:46.361Z,922.56
2017-01-11T00:39:14.543Z,922.54
2017-01-11T00:39:42.878Z,922.55
2017-01-11T00:40:54.068Z,922.58
2017-01-11T00:41:22.210Z,922.57
2017-01-11T00:41:50.436Z,922.6
2017-01-11T00:42:18.606Z,922.56
2017-01-11T00:42:46.913Z,922.61
2017-01-11T00:43:15.064Z,922.57
2017-01-11T00:43:43.243Z,922.57
2017-01-11T00:44:11.488Z,922.58
2017-01-11T00:44:39.723Z,922.61
2017-01-11T00:45:07.802Z,922.61
2017-01-11T00:45:36.146Z,922.56
2017-01-11T00:46:47.329Z,922.55
2017-01-11T00:47:15.561Z,922.61
2017-01-11T00:47:43.795Z,922.63
2017-01-11T00:48:11.866Z,922.65
2017-01-11T00:48:40.179Z,922.65
2017-01-11T00:49:08.330Z,922.62
2017-01-11T00:49:37.266Z,922.66
2017-01-11T00:50:05.606Z,922.65
2017-01-11T00:50:33.839Z,922.66
2017-01-11T00:51:02.115Z,922.66
2017-01-11T00:51:30.273Z,922.64
2017-01-11T00:52:41.453Z,922.65
2017-01-11T00:53:09.587Z,922.67
2017-01-11T00:53:37.621Z,922.68
2017-01-11T00:54:05.884Z,922.71
2017-01-11T00:54:34.189Z,922.68
2017-01-11T00:55:02.344Z,922.68
2017-01-11T00:55:30.355Z,922.69
2017-01-11T00:55:58.413Z,922.72
2017-01-11T00:56:26.789Z,922.74
2017-01-11T00:56:55.065Z,922.71
2017-01-11T00:57:23.217Z,922.74
2017-01-11T00:58:34.306Z,922.76
2017-01-11T00:59:02.352Z,922.79
2017-01-11T00:59:30.391Z,922.81
2017-01-11T00:59:58.650Z,922.82
2017-01-11T01:00:26.963Z,922.87
2017-01-11T01:00:55.201Z,922.89
2017-01-11T01:01:23.191Z,922.87
2017-01-11T01:01:51.341Z,922.9
2017-01-11T01:02:19.387Z,922.89
2017-01-11T01:02:47.752Z,922.9
2017-01-11T01:03:16.092Z,922.99
2017-01-11T01:04:27.271Z,922.87
2017-01-11T01:04:55.313Z,922.91
2017-01-11T01:05:23.537Z,922.95
2017-01-11T01:05:51.609Z,922.94
2017-01-11T01:06:19.732Z,923.01
2017-01-11T01:06:48.068Z,922.95
2017-01-11T01:07:16.239Z,922.94
2017-01-11T01:07:44.572Z,922.97
2017-01-11T01:08:12.800Z,922.99
2017-01-11T01:08:40.969Z,922.94
2017-01-11T01:09:09.128Z,923.01
2017-01-11T01:10:20.402Z,922.98
2017-01-11T01:10:48.638Z,922.99
2017-01-11T01:11:16.685Z,922.99
2017-01-11T01:11:44.758Z,923.02
2017-01-11T01:12:12.973Z,923
2017-01-11T01:12:41.027Z,923.05
2017-01-11T01:13:09.108Z,923.03
2017-01-11T01:13:37.273Z,923.01
2017-01-11T01:14:05.502Z,923.05
2017-01-11T01:14:33.775Z,923.04
2017-01-11T01:15:02.118Z,923.06
2017-01-11T01:16:13.303Z,923.07
2017-01-11T01:17:24.132Z,923.11
2017-01-11T01:17:52.233Z,923.13
2017-01-11T01:18:20.151Z,923.15
2017-01-11T01:18:48.395Z,923.12
2017-01-11T01:19:16.573Z,923.14
2017-01-11T01:19:44.710Z,923.13
2017-01-11T01:20:12.944Z,923.12
2017-01-11T01:20:41.127Z,923.13
2017-01-11T01:21:09.350Z,923.17
2017-01-11T01:22:26.393Z,923.17
2017-01-11T01:22:54.353Z,923.16
2017-01-11T01:23:22.578Z,923.19
2017-01-11T01:23:50.840Z,923.17
2017-01-11T01:24:19.081Z,923.22
2017-01-11T01:24:47.232Z,923.17
2017-01-11T01:25:15.312Z,923.23
2017-01-11T01:25:43.650Z,923.2
2017-01-11T01:26:11.696Z,923.23
2017-01-11T01:26:39.783Z,923.21
2017-01-11T01:27:08.230Z,923.21
2017-01-11T01:28:19.507Z,923.21
2017-01-11T01:28:47.831Z,923.21
2017-01-11T01:29:16.154Z,923.24
2017-01-11T01:29:44.321Z,923.21
2017-01-11T01:30:12.439Z,923.21
2017-01-11T01:30:40.777Z,923.24
2017-01-11T01:31:08.943Z,923.21
2017-01-11T01:31:37.278Z,923.24
2017-01-11T01:32:05.508Z,923.23
2017-01-11T01:32:33.875Z,923.24
2017-01-11T01:33:02.219Z,923.23
2017-01-11T01:34:13.501Z,923.26
2017-01-11T01:34:41.551Z,923.26
2017-01-11T01:35:09.872Z,923.24
2017-01-11T01:35:38.479Z,923.27
2017-01-11T01:36:06.693Z,923.27
2017-01-11T01:36:35.026Z,923.28
2017-01-11T01:37:03.108Z,923.27
2017-01-11T01:37:31.256Z,923.27
2017-01-11T01:37:59.395Z,923.29
2017-01-11T01:38:27.758Z,923.24
2017-01-11T01:38:56.009Z,923.28
2017-01-11T01:40:07.286Z,923.25
2017-01-11T01:40:35.515Z,923.25
2017-01-11T01:41:03.743Z,923.26
2017-01-11T01:41:31.724Z,923.26
2017-01-11T01:41:59.757Z,923.26
2017-01-11T01:42:27.996Z,923.26
2017-01-11T01:42:56.084Z,923.22
2017-01-11T01:43:24.234Z,923.27
2017-01-11T01:43:52.558Z,923.24
2017-01-11T01:44:20.731Z,923.23
2017-01-11T01:44:48.983Z,923.25
2017-01-11T01:46:00.164Z,923.23
2017-01-11T01:46:28.395Z,923.24
2017-01-11T01:46:56.721Z,923.25
2017-01-11T01:47:24.981Z,923.24
2017-01-11T01:47:53.284Z,923.23
2017-01-11T01:48:21.351Z,923.22
2017-01-11T01:48:49.619Z,923.2
2017-01-11T01:49:17.952Z,923.22
2017-01-11T01:49:46.088Z,923.22
2017-01-11T01:50:14.266Z,923.21
2017-01-11T01:50:42.516Z,923.22
2017-01-11T01:51:53.882Z,923.22
2017-01-11T01:52:21.963Z,923.22
2017-01-11T01:52:50.280Z,923.18
2017-01-11T01:53:18.539Z,923.21
2017-01-11T01:53:46.850Z,923.2
2017-01-11T01:54:15.185Z,923.2
2017-01-11T01:54:43.364Z,923.19
2017-01-11T01:55:11.704Z,923.16
2017-01-11T01:55:40.028Z,923.19
2017-01-11T01:56:08.327Z,923.16
2017-01-11T01:56:36.576Z,923.13
2017-01-11T01:57:47.766Z,923.14
2017-01-11T01:58:16.092Z,923.16
2017-01-11T01:58:44.415Z,923.16
2017-01-11T01:59:12.580Z,923.15
2017-01-11T01:59:40.799Z,923.15
2017-01-11T02:00:09.134Z,923.16
2017-01-11T02:00:37.315Z,923.17
2017-01-11T02:01:05.653Z,923.14
2017-01-11T02:01:33.884Z,923.14
2017-01-11T02:02:02.159Z,923.11
2017-01-11T02:02:30.411Z,923.1
2017-01-11T02:03:41.685Z,923.11
2017-01-11T02:04:09.822Z,923.08
2017-01-11T02:04:37.955Z,923.09
2017-01-11T02:05:06.215Z,923.09
2017-01-11T02:05:34.433Z,923.08
2017-01-11T02:06:02.679Z,923.1
2017-01-11T02:06:30.674Z,923.08
2017-01-11T02:06:58.916Z,923.04
2017-01-11T02:07:27.239Z,923.07
2017-01-11T02:07:55.603Z,923.04
2017-01-11T02:08:23.850Z,923.06
2017-01-11T02:09:35.153Z,923.02
2017-01-11T02:10:03.286Z,923.03
2017-01-11T02:10:31.512Z,923.03
2017-01-11T02:10:59.774Z,923.03
2017-01-11T02:11:28.087Z,923.02
2017-01-11T02:11:56.233Z,923.02
2017-01-11T02:12:24.409Z,923.01
2017-01-11T02:12:52.748Z,923
2017-01-11T02:13:20.790Z,923.03
2017-01-11T02:13:49.061Z,922.99
2017-01-11T02:14:17.308Z,922.98
2017-01-11T02:15:28.298Z,922.98
2017-01-11T02:15:56.531Z,923
2017-01-11T02:16:24.849Z,922.97
2017-01-11T02:16:53.104Z,922.98
2017-01-11T02:17:21.318Z,922.92
2017-01-11T02:17:49.655Z,922.94
2017-01-11T02:18:17.643Z,922.92
2017-01-11T02:18:45.793Z,922.96
2017-01-11T02:19:14.023Z,922.9
2017-01-11T02:19:42.198Z,922.92
2017-01-11T02:20:10.544Z,922.93
2017-01-11T02:21:21.901Z,922.93
2017-01-11T02:21:50.053Z,922.9
2017-01-11T02:22:18.155Z,922.94
2017-01-11T02:22:46.418Z,922.96
2017-01-11T02:23:14.748Z,922.93
2017-01-11T02:23:42.877Z,922.93
2017-01-11T02:24:10.957Z,922.94
2017-01-11T02:24:39.102Z,922.96
2017-01-11T02:25:07.239Z,922.95
2017-01-11T02:25:35.502Z,922.96
2017-01-11T02:26:03.659Z,922.98
2017-01-11T02:27:14.837Z,922.99
2017-01-11T02:27:42.997Z,922.95
2017-01-11T02:28:11.323Z,922.96
2017-01-11T02:28:39.579Z,922.95
2017-01-11T02:29:07.703Z,922.94
2017-01-11T02:29:35.944Z,922.98
2017-01-11T02:30:04.026Z,922.92
2017-01-11T02:30:31.992Z,922.94
2017-01-11T02:31:00.319Z,922.93
2017-01-11T02:31:28.407Z,922.95
2017-01-11T02:31:56.744Z,922.96
2017-01-11T02:33:08.044Z,923
2017-01-11T02:33:36.153Z,922.98
2017-01-11T02:34:04.377Z,923
2017-01-11T02:34:32.632Z,923
2017-01-11T02:35:00.943Z,922.99
2017-01-11T02:35:29.280Z,923.02
2017-01-11T02:35:57.456Z,923.03
2017-01-11T02:36:25.603Z,923.01
2017-01-11T02:36:53.837Z,923.03
2017-01-11T02:37:22.105Z,923.02
2017-01-11T02:37:50.258Z,923.02
2017-01-11T02:39:01.629Z,923.03
2017-01-11T02:39:29.949Z,923.03
2017-01-11T02:39:58.273Z,923.08
2017-01-11T02:40:26.435Z,923.06
2017-01-11T02:40:54.647Z,923.07
2017-01-11T02:41:22.888Z,923.06
2017-01-11T02:41:51.062Z,923.05
2017-01-11T02:42:19.303Z,923.09
2017-01-11T02:42:47.627Z,923.06
2017-01-11T02:43:15.994Z,923.03
2017-01-11T02:43:44.334Z,923.03
2017-01-11T02:44:55.517Z,923.05
2017-01-11T02:45:23.686Z,923.04
2017-01-11T02:45:51.913Z,923.03
2017-01-11T02:46:20.080Z,923.04
2017-01-11T02:46:48.292Z,923.07
2017-01-11T02:47:16.440Z,923
2017-01-11T02:47:44.617Z,923.05
2017-01-11T02:48:12.769Z,923.03
2017-01-11T02:48:40.911Z,923.06
2017-01-11T02:49:09.175Z,923.02
2017-01-11T02:49:37.331Z,923.03
2017-01-11T02:50:48.514Z,923.05
2017-01-11T02:51:16.748Z,923.02
2017-01-11T02:51:44.789Z,923.04
2017-01-11T02:52:12.768Z,922.99
2017-01-11T02:52:40.889Z,923
2017-01-11T02:53:09.230Z,922.97
2017-01-11T02:53:37.307Z,922.99
2017-01-11T02:54:05.547Z,922.97
2017-01-11T02:54:33.776Z,922.96
2017-01-11T02:55:02.056Z,922.96
2017-01-11T02:55:30.306Z,922.92
2017-01-11T02:56:41.581Z,922.94
2017-01-11T02:57:09.907Z,922.95
2017-01-11T02:57:38.131Z,922.91
2017-01-11T02:58:06.391Z,922.92
2017-01-11T02:58:34.603Z,922.87
2017-01-11T02:59:02.843Z,922.91
2017-01-11T02:59:31.116Z,922.91
2017-01-11T02:59:59.364Z,922.87
2017-01-11T03:00:27.596Z,922.85
2017-01-11T03:00:55.958Z,922.86
2017-01-11T03:01:24.208Z,922.84
2017-01-11T03:02:35.388Z,922.85
2017-01-11T03:03:03.714Z,922.83
2017-01-11T03:03:31.939Z,922.8
2017-01-11T03:04:00.103Z,922.81
2017-01-11T03:04:28.225Z,922.76
2017-01-11T03:04:56.382Z,922.75
2017-01-11T03:05:24.555Z,922.7
2017-01-11T03:05:52.699Z,922.72
2017-01-11T03:06:20.743Z,922.68
2017-01-11T03:06:49.013Z,922.67
2017-01-11T03:07:17.351Z,922.72
2017-01-11T03:08:28.622Z,922.66
2017-01-11T03:08:56.944Z,922.64
2017-01-11T03:09:25.077Z,922.68
2017-01-11T03:09:53.240Z,922.64
2017-01-11T03:10:21.457Z,922.64
2017-01-11T03:10:49.700Z,922.66
2017-01-11T03:11:17.968Z,922.6
2017-01-11T03:11:46.018Z,922.61
2017-01-11T03:12:14.245Z,922.6
2017-01-11T03:12:42.516Z,922.6
2017-01-11T03:13:10.857Z,922.62
2017-01-11T03:14:21.947Z,922.6
2017-01-11T03:14:50.174Z,922.57
2017-01-11T03:15:18.415Z,922.55
2017-01-11T03:15:46.317Z,922.57
2017-01-11T03:16:14.341Z,922.58
2017-01-11T03:16:42.583Z,922.57
2017-01-11T03:17:10.662Z,922.54
2017-01-11T03:17:38.812Z,922.53
2017-01-11T03:18:07.040Z,922.53
2017-01-11T03:18:35.308Z,922.51
2017-01-11T03:19:03.563Z,922.49
2017-01-11T03:20:14.932Z,922.51
2017-01-11T03:20:43.068Z,922.46
2017-01-11T03:21:11.197Z,922.45
2017-01-11T03:21:39.364Z,922.43
2017-01-11T03:22:07.586Z,922.45
2017-01-11T03:22:35.730Z,922.41
2017-01-11T03:23:03.790Z,922.45
2017-01-11T03:23:32.127Z,922.43
2017-01-11T03:24:00.359Z,922.44
2017-01-11T03:24:28.528Z,922.44
2017-01-11T03:24:56.774Z,922.42
2017-01-11T03:26:08.147Z,922.41
2017-01-11T03:26:36.374Z,922.43
2017-01-11T03:27:04.602Z,922.44
2017-01-11T03:27:32.672Z,922.41
2017-01-11T03:28:00.900Z,922.4
2017-01-11T03:28:29.122Z,922.42
2017-01-11T03:28:57.113Z,922.42
2017-01-11T03:29:25.352Z,922.43
2017-01-11T03:29:53.303Z,922.41
2017-01-11T03:30:21.407Z,922.37
2017-01-11T03:30:49.563Z,922.38
2017-01-11T03:32:00.747Z,922.39
2017-01-11T03:32:29.064Z,922.35
2017-01-11T03:32:57.286Z,922.33
2017-01-11T03:33:25.451Z,922.34
2017-01-11T03:33:53.665Z,922.35
2017-01-11T03:34:21.817Z,922.33
2017-01-11T03:34:49.896Z,922.33
2017-01-11T03:35:18.233Z,922.34
2017-01-11T03:35:46.467Z,922.3
2017-01-11T03:36:14.637Z,922.28
2017-01-11T03:36:43.322Z,922.32
2017-01-11T03:37:54.507Z,922.29
2017-01-11T03:38:22.646Z,922.27
2017-01-11T09:17:40.807Z,923.01
2017-01-11T09:18:09.988Z,923
2017-01-11T09:18:38.456Z,922.99
2017-01-11T09:19:06.791Z,922.99
2017-01-11T09:19:35.131Z,922.99
2017-01-11T09:20:03.484Z,923.01
2017-01-11T09:20:31.734Z,923
2017-01-11T09:20:59.990Z,922.99
2017-01-11T09:21:28.223Z,922.95
2017-01-11T09:21:56.852Z,922.99
2017-01-11T09:22:25.106Z,922.97
2017-01-11T09:23:47.898Z,922.94
2017-01-11T09:24:16.278Z,922.99
2017-01-11T09:24:44.644Z,922.99
2017-01-11T09:25:12.767Z,922.95
2017-01-11T09:25:41.048Z,922.99
2017-01-11T09:26:09.389Z,923
2017-01-11T09:26:37.631Z,923.01
2017-01-11T09:27:05.970Z,923
2017-01-11T09:27:34.238Z,922.99
2017-01-11T09:28:02.507Z,922.96
2017-01-11T09:28:30.803Z,922.99
2017-01-11T09:29:42.217Z,923
2017-01-11T09:30:10.593Z,923
2017-01-11T09:30:38.869Z,922.98
2017-01-11T09:31:07.088Z,923.02
2017-01-11T09:31:35.457Z,923
2017-01-11T09:32:03.613Z,923.02
2017-01-11T09:32:31.945Z,923.04
2017-01-11T09:33:00.383Z,923.01
2017-01-11T09:33:28.565Z,923.02
2017-01-11T09:33:56.834Z,923.01
2017-01-11T09:34:25.223Z,923.04
2017-01-11T09:35:36.544Z,923.05
2017-01-11T09:36:04.922Z,923.02
2017-01-11T09:36:33.294Z,923.05
2017-01-11T09:37:01.510Z,923.07
2017-01-11T09:37:29.873Z,923.11
2017-01-11T09:37:58.124Z,923.07
2017-01-11T09:38:26.363Z,923.11
2017-01-11T09:38:54.606Z,923.14
2017-01-11T09:39:22.879Z,923.13
2017-01-11T09:39:51.249Z,923.15
2017-01-11T09:40:19.641Z,923.17
2017-01-11T09:41:30.976Z,923.17
2017-01-11T09:41:59.357Z,923.18
2017-01-11T09:42:27.623Z,923.18
2017-01-11T09:42:55.843Z,923.19
2017-01-11T09:43:24.121Z,923.19
2017-01-11T09:43:52.276Z,923.23
2017-01-11T09:44:20.617Z,923.23
2017-01-11T09:44:48.961Z,923.23
2017-01-11T09:45:17.237Z,923.23
2017-01-11T09:45:45.599Z,923.19
2017-01-11T09:46:13.989Z,923.19
2017-01-11T09:47:25.396Z,923.22
2017-01-11T09:47:53.681Z,923.23
2017-01-11T09:48:21.961Z,923.18
2017-01-11T09:48:50.285Z,923.26
2017-01-11T09:49:18.564Z,923.22
2017-01-11T09:49:46.719Z,923.25
2017-01-11T09:50:15.059Z,923.22
2017-01-11T09:50:43.492Z,923.25
2017-01-11T09:51:11.761Z,923.21
2017-01-11T09:51:40.032Z,923.25
2017-01-11T09:52:08.234Z,923.23
2017-01-11T09:53:19.372Z,923.23
2017-01-11T09:53:47.657Z,923.27
2017-01-11T09:54:16.032Z,923.24
2017-01-11T09:54:44.253Z,923.3
2017-01-11T09:55:12.537Z,923.3
2017-01-11T09:55:40.596Z,923.31
2017-01-11T09:56:08.836Z,923.29
2017-01-11T09:56:37.266Z,923.32
2017-01-11T09:57:05.544Z,923.33
2017-01-11T09:57:33.530Z,923.32
2017-01-11T09:58:01.542Z,923.36
2017-01-11T09:59:12.952Z,923.36
2017-01-11T09:59:40.960Z,923.36
2017-01-11T10:00:09.235Z,923.38
2017-01-11T10:00:37.154Z,923.38
2017-01-11T10:01:05.495Z,923.37
2017-01-11T10:01:33.695Z,923.37
2017-01-11T10:02:01.918Z,923.38
2017-01-11T10:02:30.160Z,923.39
2017-01-11T10:02:58.409Z,923.35
2017-01-11T10:03:26.679Z,923.36
2017-01-11T10:03:55.073Z,923.38
2017-01-11T10:05:06.476Z,923.37
2017-01-11T10:05:34.857Z,923.39
2017-01-11T10:06:03.100Z,923.4
2017-01-11T10:06:31.362Z,923.4
2017-01-11T10:06:59.678Z,923.4
2017-01-11T10:07:27.971Z,923.4
2017-01-11T10:07:56.255Z,923.4
2017-01-11T10:08:24.547Z,923.39
2017-01-11T10:08:52.769Z,923.39
2017-01-11T10:09:21.091Z,923.39
2017-01-11T10:09:49.343Z,923.36
2017-01-11T10:11:00.757Z,923.37
2017-01-11T10:11:29.046Z,923.37
2017-01-11T10:11:57.421Z,923.4
2017-01-11T10:12:25.543Z,923.36
2017-01-11T10:12:53.825Z,923.4
2017-01-11T10:13:21.886Z,923.36
2017-01-11T10:13:50.221Z,923.4
2017-01-11T10:14:18.567Z,923.35
2017-01-11T10:14:46.929Z,923.38
2017-01-11T10:15:15.199Z,923.32
2017-01-11T10:15:43.429Z,923.36
2017-01-11T10:16:54.740Z,923.39
2017-01-11T10:17:23.022Z,923.3
2017-01-11T10:17:51.015Z,923.3
2017-01-11T10:18:19.136Z,923.33
2017-01-11T10:18:47.419Z,923.32
2017-01-11T10:19:15.574Z,923.29
2017-01-11T10:19:43.905Z,923.28
2017-01-11T10:20:12.297Z,923.31
2017-01-11T10:20:40.478Z,923.34
2017-01-11T10:21:08.740Z,923.29
2017-01-11T10:21:36.937Z,923.3
2017-01-11T10:22:48.162Z,923.28
2017-01-11T10:23:16.437Z,923.26
2017-01-11T10:23:44.619Z,923.26
2017-01-11T10:24:12.644Z,923.23
2017-01-11T10:24:40.930Z,923.26
2017-01-11T10:25:08.984Z,923.27
2017-01-11T10:25:37.135Z,923.27
2017-01-11T10:26:05.377Z,923.27
2017-01-11T10:26:33.547Z,923.22
2017-01-11T10:27:01.633Z,923.26
2017-01-11T10:27:29.834Z,923.24
2017-01-11T10:28:41.153Z,923.27
2017-01-11T10:29:09.441Z,923.27
2017-01-11T10:29:37.618Z,923.29
2017-01-11T10:30:05.747Z,923.32
2017-01-11T10:30:34.124Z,923.33
2017-01-11T10:31:02.187Z,923.31
2017-01-11T10:31:30.518Z,923.31
2017-01-11T10:31:58.951Z,923.32
2017-01-11T10:32:27.135Z,923.36
2017-01-11T10:32:55.403Z,923.34
2017-01-11T10:33:23.515Z,923.37
2017-01-11T10:34:34.838Z,923.38
2017-01-11T10:35:03.127Z,923.42
2017-01-11T10:35:31.309Z,923.39
2017-01-11T10:35:59.530Z,923.45
2017-01-11T10:36:27.722Z,923.39
2017-01-11T10:36:55.788Z,923.44
2017-01-11T10:37:24.027Z,923.45
2017-01-11T10:37:52.364Z,923.46
2017-01-11T10:38:20.727Z,923.45
2017-01-11T10:38:49.088Z,923.46
2017-01-11T10:39:17.108Z,923.48
2017-01-11T10:40:28.524Z,923.46
2017-01-11T10:40:56.814Z,923.48
2017-01-11T10:41:25.097Z,923.47
2017-01-11T10:41:53.412Z,923.48
2017-01-11T10:42:21.694Z,923.47
2017-01-11T10:42:49.951Z,923.47
2017-01-11T10:43:18.192Z,923.47
2017-01-11T10:43:46.538Z,923.49
2017-01-11T10:44:14.720Z,923.45
2017-01-11T10:44:43.092Z,923.51
2017-01-11T10:45:11.393Z,923.51
2017-01-11T10:46:22.722Z,923.53
2017-01-11T10:46:50.910Z,923.54
2017-01-11T10:47:19.181Z,923.54
2017-01-11T10:47:47.298Z,923.53
2017-01-11T10:48:15.675Z,923.56
2017-01-11T10:48:43.924Z,923.54
2017-01-11T10:49:12.173Z,923.55
2017-01-11T10:49:40.418Z,923.52
2017-01-11T10:50:08.693Z,923.54
2017-01-11T10:50:37.056Z,923.55
2017-01-11T10:51:05.356Z,923.54
2017-01-11T10:52:16.589Z,923.55
2017-01-11T10:52:44.973Z,923.63
2017-01-11T10:53:13.254Z,923.62
2017-01-11T10:53:41.376Z,923.63
2017-01-11T10:54:09.665Z,923.61
2017-01-11T10:54:37.729Z,923.65
2017-01-11T10:55:06.064Z,923.62
2017-01-11T10:55:34.406Z,923.67
2017-01-11T10:56:02.684Z,923.67
2017-01-11T10:56:31.047Z,923.66
2017-01-11T10:56:59.347Z,923.68
2017-01-11T10:58:10.672Z,923.72
2017-01-11T10:58:39.055Z,923.67
2017-01-11T10:59:07.332Z,923.7
2017-01-11T10:59:35.461Z,923.74
2017-01-11T11:00:03.839Z,923.76
2017-01-11T11:00:32.089Z,923.75
2017-01-11T11:01:00.333Z,923.77
2017-01-11T11:01:28.582Z,923.77
2017-01-11T11:01:56.858Z,923.78
2017-01-11T11:02:25.139Z,923.77
2017-01-11T11:02:53.434Z,923.78
2017-01-11T11:04:04.670Z,923.75
2017-01-11T11:04:32.861Z,923.79
2017-01-11T11:05:01.044Z,923.78
2017-01-11T11:05:29.261Z,923.77
2017-01-11T11:05:57.545Z,923.77
2017-01-11T11:06:25.891Z,923.82
2017-01-11T11:06:54.227Z,923.8
2017-01-11T11:07:22.571Z,923.78
2017-01-11T11:07:50.940Z,923.81
2017-01-11T11:08:19.301Z,923.82
2017-01-11T11:08:47.503Z,923.81
2017-01-11T11:09:58.745Z,923.81
2017-01-11T11:10:27.031Z,923.82
2017-01-11T11:10:55.308Z,923.82
2017-01-11T11:11:23.428Z,923.86
2017-01-11T11:11:51.620Z,923.87
2017-01-11T11:12:19.689Z,923.86
2017-01-11T11:12:47.746Z,923.87
2017-01-11T11:13:16.185Z,923.89
2017-01-11T11:13:44.453Z,923.89
2017-01-11T11:14:12.726Z,923.93
2017-01-11T11:14:41.116Z,923.93
2017-01-11T11:15:52.352Z,923.89
2017-01-11T11:16:20.736Z,923.9
2017-01-11T11:16:48.912Z,923.89
2017-01-11T11:17:17.229Z,923.88
2017-01-11T11:17:45.420Z,923.9
2017-01-11T11:18:13.677Z,923.93
2017-01-11T11:18:42.012Z,923.91
2017-01-11T11:19:10.350Z,923.92
2017-01-11T11:19:38.625Z,923.88
2017-01-11T11:20:06.988Z,923.91
2017-01-11T11:20:35.283Z,923.9
2017-01-11T11:21:46.345Z,923.89
2017-01-11T11:22:14.730Z,923.88
2017-01-11T11:22:43.096Z,923.93
2017-01-11T11:23:11.319Z,923.93
2017-01-11T11:23:39.510Z,923.91
2017-01-11T11:24:07.663Z,923.9
2017-01-11T11:24:35.906Z,923.9
2017-01-11T11:25:04.254Z,923.93
2017-01-11T11:25:32.527Z,923.92
2017-01-11T11:26:00.800Z,923.95
2017-01-11T11:26:29.001Z,923.93
2017-01-11T11:27:40.324Z,923.92
2017-01-11T11:28:08.708Z,923.92
2017-01-11T11:28:37.078Z,923.97
2017-01-11T11:29:05.106Z,924
2017-01-11T11:29:33.390Z,923.99
2017-01-11T11:30:01.637Z,924
2017-01-11T11:30:29.784Z,924.02
2017-01-11T11:30:58.124Z,924.03
2017-01-11T11:31:26.401Z,924
2017-01-11T11:31:54.672Z,924.01
2017-01-11T11:32:23.064Z,924.06
2017-01-11T11:33:34.387Z,924.06
2017-01-11T11:34:02.493Z,924.04
2017-01-11T11:34:30.869Z,924.09
2017-01-11T11:34:59.094Z,924.09
2017-01-11T11:35:27.287Z,924.07
2017-01-11T11:35:55.534Z,924.1
2017-01-11T11:36:23.778Z,924.07
2017-01-11T11:36:52.115Z,924.04
2017-01-11T11:37:20.475Z,924.07
2017-01-11T11:37:48.750Z,924.05
2017-01-11T11:38:17.044Z,924.09
2017-01-11T11:39:28.202Z,924.07
2017-01-11T11:39:56.216Z,924.11
2017-01-11T11:40:24.405Z,924.12
2017-01-11T11:40:52.620Z,924.19
2017-01-11T11:41:20.709Z,924.25
2017-01-11T11:41:48.861Z,924.18
2017-01-11T11:42:16.916Z,924.12
2017-01-11T11:42:45.350Z,924.15
2017-01-11T11:43:13.529Z,924.2
2017-01-11T11:43:41.887Z,924.24
2017-01-11T11:44:10.086Z,924.25
2017-01-11T11:45:21.321Z,924.21
2017-01-11T11:45:49.330Z,924.36
2017-01-11T11:46:17.519Z,924.33
2017-01-11T11:46:45.743Z,924.4
2017-01-11T11:47:13.937Z,924.44
2017-01-11T11:47:42.001Z,924.42
2017-01-11T11:48:09.964Z,924.44
2017-01-11T11:48:38.304Z,924.42
2017-01-11T11:49:06.519Z,924.45
2017-01-11T11:49:34.703Z,924.46
2017-01-11T11:50:02.813Z,924.41
2017-01-11T11:51:13.947Z,924.4
2017-01-11T11:51:42.050Z,924.26
2017-01-11T11:52:10.335Z,924.25
2017-01-11T11:52:38.468Z,924.25
2017-01-11T11:53:06.755Z,924.27
2017-01-11T11:53:34.910Z,924.23
2017-01-11T11:54:03.063Z,924.27
2017-01-11T11:54:31.222Z,924.25
2017-01-11T11:54:59.218Z,924.29
2017-01-11T11:55:27.303Z,924.22
2017-01-11T11:55:55.601Z,924.17
2017-01-11T11:57:06.933Z,924.26
2017-01-11T11:57:35.133Z,924.16
2017-01-11T11:58:03.227Z,924.23
2017-01-11T11:58:31.367Z,924.21
2017-01-11T11:58:59.466Z,924.39
2017-01-11T11:59:27.722Z,924.4
2017-01-11T11:59:55.970Z,924.24
2017-01-11T12:00:24.316Z,924.22
2017-01-11T12:00:52.501Z,924.33
2017-01-11T12:01:20.603Z,924.35
2017-01-11T12:01:48.903Z,924.36
2017-01-11T12:03:00.112Z,924.22
2017-01-11T12:03:28.492Z,924.21
2017-01-11T12:03:56.825Z,924.21
2017-01-11T12:04:25.045Z,924.15
2017-01-11T12:04:53.241Z,924.18
2017-01-11T12:05:21.372Z,924.24
2017-01-11T12:05:49.713Z,924.18
2017-01-11T12:06:18.110Z,924.22
2017-01-11T12:06:46.265Z,924.25
2017-01-11T12:07:14.447Z,924.24
2017-01-11T12:07:42.752Z,924.24
2017-01-11T12:08:54.177Z,924.24
2017-01-11T12:09:22.570Z,924.1
2017-01-11T12:09:50.853Z,924.21
2017-01-11T12:10:19.174Z,924.13
2017-01-11T12:10:47.461Z,924.06
2017-01-11T12:11:15.808Z,924.09
2017-01-11T12:11:44.054Z,924.12
2017-01-11T12:12:12.405Z,924.1
2017-01-11T12:12:40.585Z,924.09
2017-01-11T12:13:08.768Z,924.18
2017-01-11T12:13:36.697Z,924.2
2017-01-11T12:14:48.026Z,924.09
2017-01-11T12:15:16.203Z,924.13
2017-01-11T12:15:44.395Z,924.18
2017-01-11T12:16:12.439Z,924.3
2017-01-11T12:16:40.727Z,924.24
2017-01-11T12:17:08.981Z,924.19
2017-01-11T12:17:37.189Z,924.19
2017-01-11T12:18:05.533Z,924.15
2017-01-11T12:18:33.720Z,924.17
2017-01-11T12:19:01.813Z,924.17
2017-01-11T12:19:30.113Z,924.18
2017-01-11T12:20:41.446Z,924.12
2017-01-11T12:21:09.838Z,924.08
2017-01-11T12:21:38.031Z,924.1
2017-01-11T12:22:06.256Z,924.04
2017-01-11T12:22:34.451Z,924.12